ポートルイス の空港の天気 - METARとTAF

サー・シウサガル・ラングラーム国際空港 ( FIMP / MRU ) - モーリシャス ポートルイス
飛行場実況気象(Metar)
観測時間12/14 10:00 MUT (12/14 06:00 UTC)
風向・風速東 5m/s
視程10km以上
天気現象
全天の8割程度の雲 雲底高度 520m
気温29℃
湿度66%
気圧1019hPa
METARFIMP 140600Z 08010KT 9999 BKN017 29/22 Q1019
過去の天気等 Google飛行場航空写真 Wunderground天気予報

過去48時間のMETAR

飛行場予報(TAF)
発表時間: 12/14 09:00 MUT (12/14 05:00 UTC)
予報対象時間: 14日10時 MUT ~ 15日16時 MUT
風向・風速東 6m/s
視程10km以上
全天の4割程度の雲 雲底高度 550m
TAF FIMP 140500Z 1406/1512 09012KT 9999 SCT018